Latest Coastal Weather Observations for Melbourne (Olympic Park)

IDV60701

Issued at 4:21 pm EST Thursday 30 July 2015 (issued every 10 minutes, with the page automatically refreshed every 10 minutes)

About coastal observations | Map of coastal stations | Coastal observations for VIC | Marine services | Other Formats
Station Details ID: 086338 Name: MELBOURNE (OLYMPIC PARK) Lat: -37.83 Lon: 144.98 Height: 7.53 m
Data from the previous 72 hours. | See also: Recent months at Melbourne (Olympic Park)
Date/Time
EST
Temp

°C
Wind Pressure Rain
since 9am
mm
Weather Cloud Vis
km
Sea
Height
m
Swell
Dir
 
Speed
knots
Gust
knots
hPa Trend Height
m
Period
s
Dir
30/04:00pm 11.8 N 19 29 1012.7 - 0.0 - - - - - - -
30/03:30pm 12.1 N 18 31 1013.0 - 0.0 - - - - - - -
30/03:08pm 12.1 N 15 27 1013.6 - 0.0 - - - - - - -
30/03:00pm 11.8 N 13 23 1013.9 - 0.0 - - - - - - -
30/02:30pm 11.5 N 18 34 1014.7 - 0.0 - - - - - - -
30/02:00pm 11.5 N 15 28 1014.6 - 0.0 - - - - - - -
30/01:31pm 11.3 N 15 25 1015.3 - 0.0 - - - - - - -
30/01:30pm 11.2 N 14 25 1015.4 - 0.0 - - - - - - -
30/01:00pm 11.3 N 15 25 1016.2 - 0.0 - - - - - - -
30/12:44pm 11.3 N 18 28 1016.9 - 0.0 - - - - - - -
30/12:30pm 11.5 N 18 26 1017.4 - 0.0 - - - - - - -
30/12:00pm 11.5 N 17 28 1018.4 - 0.0 - - - - - - -
30/11:30am 11.0 N 18 28 1018.8 - 0.0 - - - - - - -
30/11:00am 11.0 N 19 32 1019.2 - 0.0 - - - - - - -
30/10:45am 11.1 N 15 27 1019.6 - 0.0 - - - - - - -
30/10:30am 10.7 N 16 24 1020.2 - 0.0 - - - - - - -
30/10:03am 10.4 N 15 28 1020.6 - 0.0 - - - - - - -
30/10:00am 10.4 N 13 22 1020.7 - 0.0 - - - - - - -
30/09:30am 9.9 N 16 26 1021.0 - 0.0 - - - - - - -
30/09:13am 9.8 N 17 28 1020.7 - 0.0 - - - - - - -
30/09:00am 10.1 N 14 24 1020.7 - 0.0 - - - - - - -
30/08:30am 9.6 N 15 25 1020.9 - 0.0 - - - - - - -
30/08:18am 9.5 N 15 27 1020.8 - 0.0 - - - - - - -
30/08:00am 9.2 N 12 22 1020.8 - 0.0 - - - - - - -
30/07:30am 8.8 N 10 19 1021.2 - 0.0 - - - - - - -
30/07:00am 8.8 N 13 19 1021.2 - 0.0 - - - - - - -
30/06:30am 8.7 N 12 20 1021.6 - 0.0 - - - - - - -
30/06:00am 9.0 N 13 20 1021.6 - 0.0 - - - - - - -
30/05:30am 8.6 N 9 14 1021.7 - 0.0 - - - - - - -
30/05:00am 9.0 N 11 16 1022.2 - 0.0 - - - - - - -
30/04:30am 9.3 N 12 21 1022.4 - 0.0 - - - - - - -
30/04:00am 9.1 N 10 15 1022.9 - 0.0 - - - - - - -
30/03:30am 9.2 N 9 16 1023.3 - 0.0 - - - - - - -
30/03:00am 8.9 N 9 17 1023.4 - 0.0 - - - - - - -
30/02:30am 8.8 N 11 18 1024.0 - 0.0 - - - - - - -
30/02:00am 9.1 N 9 16 1024.7 - 0.0 - - - - - - -
30/01:30am 9.1 N 8 13 1025.2 - 0.0 - - - - - - -
30/01:00am 9.3 N 7 11 1025.5 - 0.0 - - - - - - -
30/12:30am 9.4 N 9 13 1026.0 - 0.0 - - - - - - -
30/12:00am 9.7 N 7 13 1026.2 - 0.0 - - - - - - -
 
Date/Time
EST
Temp

°C
Wind Pressure Rain
since 9am
mm
Weather Cloud Vis
km
Sea
Height
m
Swell
Dir
 
Speed
knots
Gust
knots
hPa Trend Height
m
Period
s
Dir
29/11:30pm 9.7 N 8 11 1026.9 - 0.0 - - - - - - -
29/11:00pm 9.9 N 8 11 1027.2 - 0.0 - - - - - - -
29/10:30pm 10.0 N 7 10 1027.2 - 0.0 - - - - - - -
29/10:00pm 10.1 N 7 11 1027.6 - 0.0 - - - - - - -
29/09:30pm 10.5 N 8 14 1027.9 - 0.0 - - - - - - -
29/09:00pm 10.6 N 7 10 1027.9 - 0.0 - - - - - - -
29/08:30pm 10.7 N 9 14 1028.1 - 0.0 - - - - - - -
29/08:00pm 10.8 N 8 13 1028.1 - 0.0 - - - - - - -
29/07:30pm 10.7 N 8 13 1028.4 - 0.0 - - - - - - -
29/07:00pm 10.8 N 8 16 1028.3 - 0.0 - - - - - - -
29/06:30pm 10.9 N 9 13 1028.3 - 0.0 - - - - - - -
29/06:00pm 11.1 N 8 12 1028.0 - 0.0 - - - - - - -
29/05:30pm 11.2 N 11 16 1028.2 - 0.0 - - - - - - -
29/05:00pm 11.4 N 11 16 1028.3 - 0.0 - - - - - - -
29/04:30pm 11.8 N 9 12 1028.1 - 0.0 - - - - - - -
29/04:00pm 12.3 N 8 16 1028.4 - 0.0 - - - - - - -
29/03:30pm 12.4 N 10 16 1028.6 - 0.0 - - - - - - -
29/03:00pm 12.6 N 10 17 1029.0 - 0.0 - - - - - - -
29/02:30pm 12.7 N 11 18 1029.2 - 0.0 - - - - - - -
29/02:00pm 13.1 N 8 14 1029.6 - 0.0 - - - - - - -
29/01:30pm 12.9 NNW 10 16 1030.0 - 0.0 - - - - - - -
29/01:00pm 13.3 N 11 16 1030.2 - 0.0 - - - - - - -
29/12:30pm 13.5 N 9 14 1030.9 - 0.0 - - - - - - -
29/12:00pm 13.1 N 10 15 1031.6 - 0.0 - - - - - - -
29/11:30am 13.1 NNW 11 16 1032.3 - 0.0 - - - - - - -
29/11:00am 13.7 NNW 8 12 1032.6 - 0.0 - - - - - - -
29/10:30am 12.5 NNW 7 11 1032.7 - 0.0 - - - - - - -
29/10:00am 12.1 N 5 8 1033.1 - 0.0 - - - - - - -
29/09:30am 11.3 N 5 6 1033.3 - 0.0 - - - - - - -
29/09:00am 9.9 N 5 8 1033.3 - 0.0 - - - - - - -
29/08:30am 8.7 NNE 5 6 1033.5 - 0.0 - - - - - - -
29/08:00am 8.6 NNE 5 6 1033.3 - 0.0 - - - - - - -
29/07:30am 8.7 NNE 5 7 1032.9 - 0.0 - - - - - - -
29/07:00am 9.0 NNE 5 7 1032.8 - 0.0 - - - - - - -
29/06:30am 9.3 NNE 5 7 1032.9 - 0.0 - - - - - - -
29/06:00am 9.6 NE 4 6 1032.7 - 0.0 - - - - - - -
29/05:30am 9.7 NNE 4 5 1032.5 - 0.0 - - - - - - -
29/05:00am 9.7 NE 5 7 1032.4 - 0.0 - - - - - - -
29/04:30am 10.0 NNE 3 4 1032.7 - 0.0 - - - - - - -
29/04:00am 9.8 NE 4 6 1032.7 - 0.0 - - - - - - -
29/03:30am 9.9 NE 5 6 1032.8 - 0.0 - - - - - - -
29/03:00am 10.5 NE 1 3 1032.9 - 0.0 - - - - - - -
29/02:30am 10.0 CALM 0 3 1033.2 - 0.0 - - - - - - -
29/02:00am 10.4 NNW 3 4 1033.3 - 0.0 - - - - - - -
29/01:30am 10.6 NNE 4 5 1033.0 - 0.0 - - - - - - -
29/01:00am 10.7 NNE 4 5 1033.0 - 0.0 - - - - - - -
29/12:30am 10.8 NW 1 4 1033.7 - 0.0 - - - - - - -
29/12:00am 10.8 NW 1 6 1033.9 - 0.0 - - - - - - -
 
Date/Time
EST
Temp

°C
Wind Pressure Rain
since 9am
mm
Weather Cloud Vis
km
Sea
Height
m
Swell
Dir
 
Speed
knots
Gust
knots
hPa Trend Height
m
Period
s
Dir
28/11:30pm 10.5 WSW 1 4 1033.9 - 0.0 - - - - - - -
28/11:00pm 10.7 CALM 0 0 1034.0 - 0.0 - - - - - - -
28/10:30pm 11.1 SW 2 6 1034.2 - 0.0 - - - - - - -
28/10:00pm 11.3 SSW 6 9 1034.4 - 0.0 - - - - - - -
28/09:30pm 10.4 CALM 0 0 1034.2 - 0.0 - - - - - - -
28/09:00pm 10.3 CALM 0 0 1034.2 - 0.0 - - - - - - -
28/08:30pm 10.9 CALM 0 2 1034.1 - 0.0 - - - - - - -
28/08:00pm 11.4 N 3 5 1034.0 - 0.0 - - - - - - -
28/07:30pm 10.5 CALM 0 0 1034.1 - 0.0 - - - - - - -
28/07:00pm 10.3 CALM 0 0 1034.1 - 0.0 - - - - - - -
28/06:30pm 10.3 CALM 0 0 1033.8 - 0.0 - - - - - - -
28/06:00pm 10.2 CALM 0 0 1033.7 - 0.0 - - - - - - -
28/05:30pm 10.9 CALM 0 0 1033.6 - 0.0 - - - - - - -
28/05:00pm 11.5 S 3 7 1033.5 - 0.0 - - - - - - -
28/04:30pm 11.9 SSW 4 8 1033.3 - 0.0 - - - - - - -
28/04:00pm 12.3 SSW 3 6 1033.5 - 0.0 - - - - - - -
28/03:30pm 12.8 SSW 3 6 1033.3 - 0.0 - - - - - - -
28/03:00pm 12.3 SSW 5 8 1033.4 - 0.0 - - - - - - -
28/02:30pm 12.6 SSW 5 9 1033.3 - 0.0 - - - - - - -
28/02:00pm 13.0 S 6 9 1033.4 - 0.0 - - - - - - -
28/01:30pm 13.0 SSW 5 9 1033.7 - 0.0 - - - - - - -
28/01:00pm 13.2 SSW 5 9 1033.8 - 0.0 - - - - - - -
28/12:30pm 13.7 W 4 8 1034.1 - 0.0 - - - - - - -
28/12:00pm 13.0 SW 5 9 1034.6 - 0.0 - - - - - - -
28/11:30am 11.9 S 4 6 1035.1 - 0.0 - - - - - - -
28/11:00am 12.5 SW 5 9 1035.4 - 0.0 - - - - - - -
28/10:30am 12.5 WNW 7 12 1035.6 - 0.0 - - - - - - -
28/10:00am 11.7 WNW 4 8 1035.4 - 0.0 - - - - - - -
28/09:30am 11.0 WSW 4 8 1035.3 - 0.0 - - - - - - -
28/09:00am 10.6 W 4 9 1035.2 - 0.0 - - - - - - -
28/08:30am 9.8 WNW 5 8 1034.7 - 0.0 - - - - - - -
28/08:00am 9.8 WNW 3 5 1034.6 - 0.0 - - - - - - -
28/07:30am 9.7 W 3 7 1034.2 - 0.0 - - - - - - -
28/07:00am 9.7 W 5 8 1033.8 - 0.0 - - - - - - -
28/06:30am 9.6 W 3 7 1033.5 - 0.0 - - - - - - -
28/06:00am 9.4 W 1 4 1033.1 - 0.0 - - - - - - -
28/05:30am 9.4 W 4 7 1032.8 - 0.0 - - - - - - -
28/05:00am 9.3 WNW 3 6 1032.5 - 0.0 - - - - - - -
28/04:30am 9.2 NW 3 7 1032.3 - 0.0 - - - - - - -
28/04:00am 9.2 WNW 4 6 1032.2 - 0.0 - - - - - - -
28/03:30am 9.0 WNW 2 8 1032.1 - 0.0 - - - - - - -
28/03:00am 9.2 WNW 4 8 1032.0 - 0.0 - - - - - - -
28/02:30am 9.2 NW 3 6 1032.0 - 0.0 - - - - - - -
28/02:00am 9.1 NW 4 7 1031.8 - 0.0 - - - - - - -
28/01:30am 9.3 WNW 6 9 1031.5 - 0.0 - - - - - - -
28/01:00am 9.3 NW 5 9 1031.4 - 0.0 - - - - - - -
28/12:30am 9.3 WNW 5 10 1031.4 - 0.0 - - - - - - -
28/12:00am 9.6 WNW 7 11 1031.5 - 0.0 - - - - - - -
 
Date/Time
EST
Temp

°C
Wind Pressure Rain
since 9am
mm
Weather Cloud Vis
km
Sea
Height
m
Swell
Dir
 
Speed
knots
Gust
knots
hPa Trend Height
m
Period
s
Dir
27/11:30pm 9.6 WNW 6 11 1031.4 - 0.0 - - - - - - -
27/11:00pm 9.6 WNW 5 7 1031.5 - 0.0 - - - - - - -
27/10:30pm 9.5 WNW 5 8 1031.5 - 0.0 - - - - - - -
27/10:00pm 9.7 WNW 5 8 1031.5 - 0.0 - - - - - - -
27/09:30pm 9.8 WNW 5 8 1031.5 - 0.0 - - - - - - -
27/09:00pm 9.9 WNW 5 9 1031.3 - 0.0 - - - - - - -
27/08:30pm 9.9 NW 5 8 1031.2 - 0.0 - - - - - - -
27/08:00pm 10.4 NW 6 9 1031.2 - 0.0 - - - - - - -
27/07:30pm 10.5 W 6 9 1031.0 - 0.0 - - - - - - -
27/07:00pm 10.1 W 2 5 1030.7 - 0.0 - - - - - - -
27/06:30pm 10.3 W 2 6 1030.4 - 0.0 - - - - - - -
27/06:00pm 11.5 W 7 14 1030.1 - 0.0 - - - - - - -
27/05:30pm 11.7 W 7 15 1029.7 - 0.0 - - - - - - -
27/05:00pm 12.2 W 7 13 1029.4 - 0.0 - - - - - - -
27/04:30pm 12.5 WSW 8 15 1029.1 - 0.0 - - - - - - -

Other Formats:

Comma delimited format used in spreadsheet applications
http://www.bom.gov.au/fwo/IDV60701/IDV60701.95936.axf

JavaScript Object Notation format (JSON) in row-major order
http://www.bom.gov.au/fwo/IDV60701/IDV60701.95936.json